Time;durP1;ratioP1;P1;durP2;ratioP2;P2;SDS_P1;SDS_P2;PMS_P1;PMS_P2;Temp;Humidity;BMP_temperature;BMP_pressure;BME280_temperature;BME280_humidity;BME280_pressure;Samples;Min_cycle;Max_cycle;Signal;HPM_P1;HPM_P2
2022/01/31 00:00:39;;;;;;;13.33;3.60;;;;;;;;;;5152546;27;21275;-74
2022/01/31 00:03:05;;;;;;;10.40;2.90;;;;;;;;;;5155589;27;20034;-74
2022/01/31 00:05:31;;;;;;;9.23;1.93;;;;;;;;;;5133876;27;20027;-75
2022/01/31 00:07:57;;;;;;;4.77;1.90;;;;;;;;;;5136945;27;20040;-77
2022/01/31 00:10:31;;;;;;;3.63;1.93;;;;;;;;;;5147301;27;20041;-77
2022/01/31 00:13:07;;;;;;;3.90;1.60;;;;;;;;;;5153424;27;20043;-74
2022/01/31 00:15:39;;;;;;;6.67;2.40;;;;;;;;;;5154962;27;20036;-78
2022/01/31 00:18:05;;;;;;;7.45;1.55;;;;;;;;;;5142915;27;20095;-76
2022/01/31 00:20:34;;;;;;;5.33;2.43;;;;;;;;;;5142251;27;20051;-76
2022/01/31 00:23:00;;;;;;;12.77;3.63;;;;;;;;;;5144014;27;20293;-75
2022/01/31 00:25:26;;;;;;;5.67;1.77;;;;;;;;;;5134846;27;20326;-74
2022/01/31 00:27:52;;;;;;;5.27;1.27;;;;;;;;;;5137726;27;20024;-74
2022/01/31 00:30:18;;;;;;;5.07;1.90;;;;;;;;;;5137071;27;20348;-74
2022/01/31 00:32:44;;;;;;;3.60;1.27;;;;;;;;;;5140901;27;20028;-78
2022/01/31 00:35:15;;;;;;;5.40;1.73;;;;;;;;;;5134901;27;20020;-73
2022/01/31 00:37:41;;;;;;;5.03;2.13;;;;;;;;;;5143908;27;20091;-74
2022/01/31 00:40:08;;;;;;;3.67;1.50;;;;;;;;;;5141629;27;20029;-73
2022/01/31 00:42:34;;;;;;;13.03;3.37;;;;;;;;;;5137335;27;20027;-77
2022/01/31 00:45:17;;;;;;;8.07;2.07;;;;;;;;;;5141543;27;20050;-74
2022/01/31 00:47:47;;;;;;;;;;;;;;;;;;5153188;27;20059;-76
2022/01/31 00:50:15;;;;;;;4.43;2.23;;;;;;;;;;5158563;27;19907;-73
2022/01/31 00:52:43;;;;;;;4.80;1.47;;;;;;;;;;5146583;27;20401;-77
2022/01/31 00:55:10;;;;;;;6.73;1.60;;;;;;;;;;5145892;27;20016;-75
2022/01/31 00:57:36;;;;;;;8.50;2.33;;;;;;;;;;5138468;27;20020;-73
2022/01/31 01:00:03;;;;;;;3.67;1.87;;;;;;;;;;5138785;27;20015;-76
2022/01/31 01:02:30;;;;;;;4.93;1.83;;;;;;;;;;5141000;27;20015;-74
2022/01/31 01:04:56;;;;;;;5.23;2.00;;;;;;;;;;5139300;27;20090;-75
2022/01/31 01:07:22;;;;;;;7.13;1.47;;;;;;;;;;5144165;27;20015;-73
2022/01/31 01:09:49;;;;;;;6.87;1.47;;;;;;;;;;5133050;27;20012;-73
2022/01/31 01:12:15;;;;;;;4.33;1.90;;;;;;;;;;5157607;27;20105;-73
2022/01/31 01:14:42;;;;;;;7.93;1.60;;;;;;;;;;5136933;27;20026;-73
2022/01/31 01:17:08;;;;;;;4.13;1.00;;;;;;;;;;5143778;27;20095;-74
2022/01/31 01:19:36;;;;;;;5.30;2.27;;;;;;;;;;5138218;27;20027;-74
2022/01/31 01:22:03;;;;;;;12.37;1.37;;;;;;;;;;5139280;27;20014;-79
2022/01/31 01:24:29;;;;;;;4.30;2.07;;;;;;;;;;5153847;27;20043;-75
2022/01/31 01:26:56;;;;;;;9.03;2.73;;;;;;;;;;5141479;27;20034;-74
2022/01/31 01:29:23;;;;;;;5.10;1.60;;;;;;;;;;5136768;27;20039;-76
2022/01/31 01:31:49;;;;;;;2.40;1.00;;;;;;;;;;5137334;27;20099;-75
2022/01/31 01:34:16;;;;;;;2.87;1.20;;;;;;;;;;5147242;27;20023;-73
2022/01/31 01:36:44;;;;;;;5.60;1.43;;;;;;;;;;5131816;27;20022;-73
2022/01/31 01:39:10;;;;;;;10.17;2.70;;;;;;;;;;5135063;27;20008;-74
2022/01/31 01:41:36;;;;;;;1.30;1.17;;;;;;;;;;5146606;27;20027;-74
2022/01/31 01:44:02;;;;;;;6.10;1.37;;;;;;;;;;5138355;27;20035;-73
2022/01/31 01:46:28;;;;;;;4.10;1.83;;;;;;;;;;5138642;27;20032;-77
2022/01/31 01:48:54;;;;;;;2.43;1.10;;;;;;;;;;5142463;27;20035;-73
2022/01/31 01:51:20;;;;;;;10.50;2.60;;;;;;;;;;5134580;27;20019;-75
2022/01/31 01:53:47;;;;;;;8.90;1.40;;;;;;;;;;5138451;27;20021;-76
2022/01/31 01:56:14;;;;;;;5.47;1.10;;;;;;;;;;5143675;27;20026;-74
2022/01/31 01:58:42;;;;;;;4.03;1.33;;;;;;;;;;5136050;27;20043;-74
2022/01/31 02:01:09;;;;;;;7.47;2.03;;;;;;;;;;5137755;27;20033;-74
2022/01/31 02:03:36;;;;;;;7.63;1.67;;;;;;;;;;5136547;27;20016;-74
2022/01/31 02:06:06;;;;;;;6.67;1.77;;;;;;;;;;5136504;27;20046;-75
2022/01/31 02:08:43;;;;;;;4.03;1.13;;;;;;;;;;5138178;27;20046;-73
2022/01/31 02:11:10;;;;;;;5.50;1.30;;;;;;;;;;5140535;27;20011;-73
2022/01/31 02:13:37;;;;;;;2.57;1.63;;;;;;;;;;5136381;27;20042;-74
2022/01/31 02:16:06;;;;;;;6.20;1.27;;;;;;;;;;5132850;27;20027;-73
2022/01/31 02:18:32;;;;;;;4.67;1.10;;;;;;;;;;5137310;27;20030;-76
2022/01/31 02:20:59;;;;;;;7.30;1.97;;;;;;;;;;5135073;27;20039;-75
2022/01/31 02:23:26;;;;;;;3.57;0.90;;;;;;;;;;5151370;27;20021;-75
2022/01/31 02:26:03;;;;;;;7.47;1.40;;;;;;;;;;5139387;27;20019;-76
2022/01/31 02:28:31;;;;;;;2.53;0.93;;;;;;;;;;5152229;27;20073;-74
2022/01/31 02:30:58;;;;;;;3.47;0.80;;;;;;;;;;5133595;27;20028;-76
2022/01/31 02:33:24;;;;;;;10.40;0.83;;;;;;;;;;5136014;27;20108;-73
2022/01/31 02:35:52;;;;;;;2.03;0.97;;;;;;;;;;5132495;27;20027;-77
2022/01/31 02:38:18;;;;;;;7.83;1.87;;;;;;;;;;5142719;27;20099;-74
2022/01/31 02:40:45;;;;;;;1.43;1.03;;;;;;;;;;5131355;28;20028;-74
2022/01/31 02:43:12;;;;;;;4.50;1.00;;;;;;;;;;5150933;27;20034;-75
2022/01/31 02:45:41;;;;;;;6.23;1.53;;;;;;;;;;5138903;28;20031;-75
2022/01/31 02:48:07;;;;;;;0.77;0.57;;;;;;;;;;5149560;27;20028;-75
2022/01/31 02:50:36;;;;;;;3.20;1.47;;;;;;;;;;5166914;27;20030;-79
2022/01/31 02:53:23;;;;;;;2.80;0.90;;;;;;;;;;5142184;28;20145;-79
2022/01/31 02:55:49;;;;;;;3.10;1.33;;;;;;;;;;5127885;28;20024;-75
2022/01/31 02:58:16;;;;;;;3.47;1.10;;;;;;;;;;5136117;28;20043;-78
2022/01/31 03:00:42;;;;;;;4.37;1.23;;;;;;;;;;5138313;28;20065;-76
2022/01/31 03:03:08;;;;;;;1.47;0.73;;;;;;;;;;5128759;28;20034;-78
2022/01/31 03:05:34;;;;;;;3.17;1.47;;;;;;;;;;5138399;28;20043;-78
2022/01/31 03:08:01;;;;;;;6.90;1.50;;;;;;;;;;5128863;28;20035;-77
2022/01/31 03:10:27;;;;;;;2.10;1.00;;;;;;;;;;5129310;28;20031;-79
2022/01/31 03:12:53;;;;;;;6.43;1.30;;;;;;;;;;5128857;28;20020;-80
2022/01/31 03:15:19;;;;;;;5.67;1.77;;;;;;;;;;5132113;27;20312;-80
2022/01/31 03:17:48;;;;;;;4.80;1.30;;;;;;;;;;5130306;27;20031;-81
2022/01/31 03:20:15;;;;;;;3.47;1.13;;;;;;;;;;5129501;27;20270;-76
2022/01/31 03:22:41;;;;;;;6.03;1.57;;;;;;;;;;5131860;27;20078;-79
2022/01/31 03:25:08;;;;;;;3.07;1.67;;;;;;;;;;5132223;27;20436;-80
2022/01/31 03:27:34;;;;;;;1.83;1.20;;;;;;;;;;5140182;27;20282;-81
2022/01/31 03:30:00;;;;;;;5.80;0.90;;;;;;;;;;5129437;27;20296;-80
2022/01/31 03:32:26;;;;;;;2.70;1.30;;;;;;;;;;5122038;27;20034;-80
2022/01/31 03:34:52;;;;;;;2.10;1.17;;;;;;;;;;5124515;27;20281;-82
2022/01/31 03:37:18;;;;;;;2.50;0.90;;;;;;;;;;5120877;27;20413;-79
2022/01/31 03:39:44;;;;;;;3.13;1.63;;;;;;;;;;5125053;27;20288;-81
2022/01/31 03:42:10;;;;;;;4.53;0.97;;;;;;;;;;5142301;27;20313;-79
2022/01/31 03:44:36;;;;;;;1.87;1.20;;;;;;;;;;5122830;27;20303;-78
2022/01/31 03:47:02;;;;;;;7.63;2.10;;;;;;;;;;5133516;27;20276;-80
2022/01/31 03:49:28;;;;;;;2.33;1.33;;;;;;;;;;5134486;27;20289;-80
2022/01/31 03:51:54;;;;;;;7.23;1.13;;;;;;;;;;5112533;27;20334;-79
2022/01/31 03:54:20;;;;;;;5.10;1.90;;;;;;;;;;5111073;27;20297;-79
2022/01/31 03:56:46;;;;;;;7.10;2.30;;;;;;;;;;5121146;27;21972;-79
2022/01/31 03:59:15;;;;;;;7.13;2.00;;;;;;;;;;5127898;27;20067;-79
2022/01/31 04:01:41;;;;;;;1.77;1.07;;;;;;;;;;5130003;27;20274;-80
2022/01/31 04:04:10;;;;;;;7.47;2.00;;;;;;;;;;5112888;27;20265;-79
2022/01/31 04:06:37;;;;;;;4.03;1.03;;;;;;;;;;5113784;27;20280;-79
2022/01/31 04:09:03;;;;;;;7.07;1.10;;;;;;;;;;5129308;27;20360;-79
2022/01/31 04:11:29;;;;;;;2.53;1.53;;;;;;;;;;5129308;27;20278;-80
2022/01/31 04:13:55;;;;;;;4.73;2.13;;;;;;;;;;5134083;27;20273;-80
2022/01/31 04:16:21;;;;;;;5.20;1.33;;;;;;;;;;5115257;27;20031;-80
2022/01/31 04:18:47;;;;;;;5.07;2.17;;;;;;;;;;5116384;27;20269;-80
2022/01/31 04:21:14;;;;;;;10.30;1.10;;;;;;;;;;5129579;27;20023;-81
2022/01/31 04:23:40;;;;;;;6.63;1.60;;;;;;;;;;5112437;27;20038;-80
2022/01/31 04:26:10;;;;;;;2.97;1.07;;;;;;;;;;5116047;27;20084;-80
2022/01/31 04:33:35;;;;;;;2.87;1.33;;;;;;;;;;5112985;27;20462;-80
2022/01/31 04:36:01;;;;;;;2.20;1.37;;;;;;;;;;5128663;27;20317;-80
2022/01/31 04:38:27;;;;;;;4.57;1.87;;;;;;;;;;5113294;27;20629;-80
2022/01/31 04:40:53;;;;;;;4.30;1.30;;;;;;;;;;5129572;27;21008;-80
2022/01/31 04:43:19;;;;;;;2.33;1.80;;;;;;;;;;5115631;27;20342;-81
2022/01/31 04:45:47;;;;;;;3.80;1.60;;;;;;;;;;5112551;27;20274;-80
2022/01/31 04:48:17;;;;;;;2.87;1.70;;;;;;;;;;5127817;27;20075;-80
2022/01/31 04:50:47;;;;;;;1.90;1.00;;;;;;;;;;5120015;27;20031;-80
2022/01/31 04:53:14;;;;;;;6.87;2.20;;;;;;;;;;5125213;27;20117;-81
2022/01/31 04:55:40;;;;;;;3.97;1.67;;;;;;;;;;5137200;27;20027;-80
2022/01/31 04:58:07;;;;;;;1.87;1.07;;;;;;;;;;5123373;27;20486;-80
2022/01/31 05:00:33;;;;;;;4.73;2.73;;;;;;;;;;5128506;27;20038;-80
2022/01/31 05:03:00;;;;;;;3.77;1.47;;;;;;;;;;5119289;27;20486;-80
2022/01/31 05:05:26;;;;;;;8.77;1.70;;;;;;;;;;5128593;27;20115;-79
2022/01/31 05:07:54;;;;;;;7.67;1.83;;;;;;;;;;5116605;27;20121;-80
2022/01/31 05:10:20;;;;;;;6.67;1.80;;;;;;;;;;5118525;27;20028;-80
2022/01/31 05:12:46;;;;;;;5.37;1.63;;;;;;;;;;5113486;27;20028;-81
2022/01/31 05:15:13;;;;;;;5.17;2.03;;;;;;;;;;5110589;27;20031;-81
2022/01/31 05:17:39;;;;;;;8.73;2.97;;;;;;;;;;5114185;27;20074;-81
2022/01/31 05:20:05;;;;;;;4.37;1.90;;;;;;;;;;5114454;27;20034;-81
2022/01/31 05:22:31;;;;;;;5.17;2.23;;;;;;;;;;5129617;27;20036;-81
2022/01/31 05:24:57;;;;;;;6.07;2.30;;;;;;;;;;5112707;27;20020;-80
2022/01/31 05:27:23;;;;;;;4.80;2.30;;;;;;;;;;5119085;27;20122;-81
2022/01/31 05:29:51;;;;;;;4.23;1.87;;;;;;;;;;5130738;27;20097;-81
2022/01/31 05:32:17;;;;;;;6.30;1.90;;;;;;;;;;5116643;27;20023;-80
2022/01/31 05:34:43;;;;;;;5.57;2.93;;;;;;;;;;5128184;27;20451;-80
2022/01/31 05:37:09;;;;;;;5.33;3.07;;;;;;;;;;5127289;27;20034;-80
2022/01/31 05:39:36;;;;;;;4.40;2.30;;;;;;;;;;5129990;27;20027;-81
2022/01/31 05:42:02;;;;;;;12.50;2.03;;;;;;;;;;5116829;27;20046;-81
2022/01/31 05:44:28;;;;;;;1.77;1.50;;;;;;;;;;5120631;27;20023;-81
2022/01/31 05:46:55;;;;;;;7.00;2.97;;;;;;;;;;5118889;27;20439;-80
2022/01/31 05:49:21;;;;;;;6.10;2.23;;;;;;;;;;5118310;27;20052;-81
2022/01/31 05:52:14;;;;;;;3.93;1.87;;;;;;;;;;5118343;27;20043;-80
2022/01/31 05:54:40;;;;;;;5.18;2.47;;;;;;;;;;5118859;27;20031;-79
2022/01/31 05:57:07;;;;;;;4.77;2.13;;;;;;;;;;5123676;27;20035;-81
2022/01/31 05:59:34;;;;;;;11.63;2.07;;;;;;;;;;5121643;27;20435;-80
2022/01/31 06:02:03;;;;;;;14.23;2.30;;;;;;;;;;5138435;27;20114;-80
2022/01/31 06:04:30;;;;;;;5.10;2.40;;;;;;;;;;5123671;27;20616;-81
2022/01/31 06:06:56;;;;;;;7.00;2.13;;;;;;;;;;5137417;27;20104;-80
2022/01/31 06:09:22;;;;;;;4.60;1.87;;;;;;;;;;5123675;27;20031;-80
2022/01/31 06:11:49;;;;;;;2.37;1.43;;;;;;;;;;5122061;27;20031;-80
2022/01/31 06:14:15;;;;;;;6.70;1.90;;;;;;;;;;5124773;27;20135;-79
2022/01/31 06:16:41;;;;;;;8.53;1.80;;;;;;;;;;5123514;27;20141;-81
2022/01/31 06:19:10;;;;;;;7.93;2.97;;;;;;;;;;5134025;27;20499;-79
2022/01/31 06:21:36;;;;;;;3.63;2.03;;;;;;;;;;5135794;27;20031;-79
2022/01/31 06:24:08;;;;;;;1.97;1.07;;;;;;;;;;5141355;27;20031;-78
2022/01/31 06:26:34;;;;;;;9.75;2.55;;;;;;;;;;5137148;27;20203;-82
2022/01/31 06:29:01;;;;;;;5.50;1.67;;;;;;;;;;5130281;27;20036;-78
2022/01/31 06:31:28;;;;;;;5.43;1.70;;;;;;;;;;5130835;27;20237;-78
2022/01/31 06:33:54;;;;;;;2.67;1.27;;;;;;;;;;5129992;27;20136;-80
2022/01/31 06:36:22;;;;;;;8.63;1.23;;;;;;;;;;5129206;27;20112;-79
2022/01/31 06:38:48;;;;;;;3.40;1.10;;;;;;;;;;5133598;27;20053;-76
2022/01/31 06:41:16;;;;;;;11.63;1.23;;;;;;;;;;5131682;27;20035;-80
2022/01/31 06:43:42;;;;;;;6.50;2.20;;;;;;;;;;5144906;27;20023;-78
2022/01/31 06:46:08;;;;;;;2.93;1.10;;;;;;;;;;5137317;28;20028;-76
2022/01/31 06:48:35;;;;;;;6.67;2.33;;;;;;;;;;5148675;27;20635;-78
2022/01/31 06:51:01;;;;;;;5.47;1.37;;;;;;;;;;5132953;28;20213;-79
2022/01/31 06:53:28;;;;;;;7.80;1.43;;;;;;;;;;5129174;28;20023;-76
2022/01/31 06:55:59;;;;;;;8.83;1.70;;;;;;;;;;5127241;28;20024;-76
2022/01/31 06:58:25;;;;;;;9.23;1.90;;;;;;;;;;5133799;28;20020;-79
2022/01/31 07:00:51;;;;;;;16.27;2.13;;;;;;;;;;5127400;28;20025;-77
2022/01/31 07:03:17;;;;;;;9.03;1.10;;;;;;;;;;5127516;28;20346;-77
2022/01/31 07:05:45;;;;;;;11.20;2.77;;;;;;;;;;5130916;28;20011;-77
2022/01/31 07:08:11;;;;;;;1.87;0.87;;;;;;;;;;5143434;27;20032;-79
2022/01/31 07:10:38;;;;;;;7.67;1.47;;;;;;;;;;5124335;28;20214;-80
2022/01/31 07:13:13;;;;;;;4.83;1.13;;;;;;;;;;5120055;28;20038;-80
2022/01/31 07:15:39;;;;;;;2.47;1.10;;;;;;;;;;5118848;28;20916;-80
2022/01/31 07:18:05;;;;;;;4.20;1.07;;;;;;;;;;5118372;28;20467;-80
2022/01/31 07:20:40;;;;;;;25.30;2.90;;;;;;;;;;5128673;28;20078;-79
2022/01/31 07:23:16;;;;;;;10.03;2.00;;;;;;;;;;5115738;28;20051;-80
2022/01/31 07:25:42;;;;;;;5.70;1.33;;;;;;;;;;5112825;28;20126;-79
2022/01/31 07:28:12;;;;;;;5.33;2.17;;;;;;;;;;5126457;28;20333;-79
